Time;durP1;ratioP1;P1;durP2;ratioP2;P2;SDS_P1;SDS_P2;PMS_P1;PMS_P2;Temp;Humidity;BMP_temperature;BMP_pressure;BME280_temperature;BME280_humidity;BME280_pressure;Samples;Min_cycle;Max_cycle;Signal;HPM_P1;HPM_P2
2022/03/01 00:01:55;;;;;;;;;;;;;;;0.30;72.10;95816.97;5136521;27;1178;-48
2022/03/01 00:04:21;;;;;;;;;;;;;;;0.34;71.96;95807.97;5136152;27;1021;-48
2022/03/01 00:06:47;;;;;;;;;;;;;;;0.38;72.27;95807.75;5136098;27;1083;-49
2022/03/01 00:09:13;;;;;;;;;;;;;;;0.34;71.63;95800.09;5136228;27;1032;-49
2022/03/01 00:11:39;;;;;;;;;;;;;;;0.28;72.19;95797.78;5136074;27;1039;-49
2022/03/01 00:14:06;;;;;;;;;;;;;;;0.24;71.70;95802.38;5135498;27;1901;-49
2022/03/01 00:16:32;;;;;;;;;;;;;;;0.33;71.27;95796.63;5136208;27;971;-49
2022/03/01 00:18:58;;;;;;;;;;;;;;;0.27;71.71;95790.84;5135804;27;964;-49
2022/03/01 00:21:25;;;;;;;;;;;;;;;0.23;72.34;95784.03;5136010;27;977;-49
2022/03/01 00:23:51;;;;;;;;;;;;;;;0.20;72.10;95792.94;5135661;27;953;-49
2022/03/01 00:26:17;;;;;;;;;;;;;;;0.17;72.51;95791.34;5135738;27;1035;-49
2022/03/01 00:28:44;;;;;;;;;;;;;;;0.23;72.33;95784.03;5135878;27;1019;-49
2022/03/01 00:31:10;;;;;;;;;;;;;;;0.24;72.12;95791.00;5135667;27;1039;-49
2022/03/01 00:33:36;;;;;;;;;;;;;;;0.23;72.32;95782.28;5135443;27;1906;-48
2022/03/01 00:36:02;;;;;;;;;;;;;;;0.23;71.71;95781.41;5135502;27;1103;-49
2022/03/01 00:38:28;;;;;;;;;;;;;;;0.18;71.53;95776.41;5135646;27;965;-49
2022/03/01 00:40:54;;;;;;;;;;;;;;;0.22;71.92;95779.72;5135603;27;1031;-49
2022/03/01 00:43:21;;;;;;;;;;;;;;;0.16;71.39;95773.00;5135391;27;1020;-49
2022/03/01 00:45:48;;;;;;;;;;;;;;;0.13;71.29;95776.66;5135398;27;1047;-48
2022/03/01 00:48:14;;;;;;;;;;;;;;;0.08;71.90;95769.94;5135088;27;984;-49
2022/03/01 00:50:40;;;;;;;;;;;;;;;0.15;71.41;95766.91;5132007;27;1176;-49
2022/03/01 00:53:06;;;;;;;;;;;;;;;0.26;71.20;95762.84;5114527;28;1980;-49
2022/03/01 00:55:32;;;;;;;;;;;;;;;0.20;71.40;95758.75;5114575;28;1024;-49
2022/03/01 00:57:58;;;;;;;;;;;;;;;0.23;71.10;95747.22;5114379;28;1249;-49
2022/03/01 01:00:25;;;;;;;;;;;;;;;0.25;71.06;95742.72;5114651;28;964;-49
2022/03/01 01:02:51;;;;;;;;;;;;;;;0.16;71.13;95742.28;5114368;28;1028;-49
2022/03/01 01:05:17;;;;;;;;;;;;;;;0.11;71.48;95739.06;5114653;28;1053;-49
2022/03/01 01:07:43;;;;;;;;;;;;;;;0.08;70.77;95731.34;5114515;28;1113;-48
2022/03/01 01:10:10;;;;;;;;;;;;;;;0.11;70.91;95728.53;5114264;28;940;-49
2022/03/01 01:12:36;;;;;;;;;;;;;;;0.13;70.08;95726.69;5114096;28;1909;-49
2022/03/01 01:15:03;;;;;;;;;;;;;;;-0.03;70.55;95731.09;5114046;28;1095;-48
2022/03/01 01:17:29;;;;;;;;;;;;;;;0.04;70.33;95724.56;5114464;28;1043;-48
2022/03/01 01:19:56;;;;;;;;;;;;;;;0.06;70.29;95727.09;5114045;28;949;-49
2022/03/01 01:22:40;;;;;;;;;;;;;;;0.08;69.81;95726.09;5114324;28;948;-49
2022/03/01 01:25:11;;;;;;;;;;;;;;;0.03;69.47;95741.25;5113799;28;1052;-49
2022/03/01 01:27:40;;;;;;;;;;;;;;;-0.19;70.10;95752.06;5114447;28;1036;-49
2022/03/01 01:30:07;;;;;;;;;;;;;;;-0.20;70.25;95745.13;5113957;28;945;-49
2022/03/01 01:32:33;;;;;;;;;;;;;;;-0.10;69.73;95750.72;5113966;28;1989;-49
2022/03/01 01:34:59;;;;;;;;;;;;;;;-0.05;69.64;95752.19;5113721;28;1100;-49
2022/03/01 01:37:26;;;;;;;;;;;;;;;-0.13;69.84;95751.75;5113919;28;1056;-49
2022/03/01 01:39:52;;;;;;;;;;;;;;;-0.15;69.80;95752.75;5114004;28;988;-49
2022/03/01 01:42:18;;;;;;;;;;;;;;;-0.12;69.57;95748.19;5113992;28;1003;-48
2022/03/01 01:44:44;;;;;;;;;;;;;;;-0.09;69.87;95752.44;5113946;28;976;-49
2022/03/01 01:47:10;;;;;;;;;;;;;;;-0.02;69.78;95736.25;5113859;28;1020;-48
2022/03/01 01:49:36;;;;;;;;;;;;;;;0.10;69.59;95734.75;5113942;28;1059;-48
2022/03/01 01:52:02;;;;;;;;;;;;;;;0.17;69.32;95740.50;5128602;27;1149;-49
2022/03/01 01:54:28;;;;;;;;;;;;;;;0.26;68.83;95740.00;5134040;27;1909;-49
2022/03/01 01:56:54;;;;;;;;;;;;;;;0.27;68.60;95738.25;5134211;28;1079;-49
2022/03/01 01:59:21;;;;;;;;;;;;;;;0.30;68.55;95741.53;5134334;28;961;-49
2022/03/01 02:01:47;;;;;;;;;;;;;;;0.32;67.46;95731.81;5134426;27;981;-49
2022/03/01 02:04:13;;;;;;;;;;;;;;;0.25;68.47;95734.81;5134142;27;981;-49
2022/03/01 02:06:57;;;;;;;;;;;;;;;0.17;67.22;95738.75;5134158;27;1044;-49
2022/03/01 02:09:23;;;;;;;;;;;;;;;0.26;66.88;95728.63;5134358;27;1011;-49
2022/03/01 02:11:49;;;;;;;;;;;;;;;0.25;67.14;95732.19;5133999;28;972;-49
2022/03/01 02:14:15;;;;;;;;;;;;;;;0.15;67.48;95734.47;5134080;27;1917;-49
2022/03/01 02:16:41;;;;;;;;;;;;;;;0.14;67.65;95722.28;5134051;27;943;-49
2022/03/01 02:19:10;;;;;;;;;;;;;;;0.23;67.24;95723.53;5133943;28;1015;-49
2022/03/01 02:21:36;;;;;;;;;;;;;;;0.25;66.68;95719.91;5133877;27;1020;-49
2022/03/01 02:24:02;;;;;;;;;;;;;;;0.35;66.64;95720.25;5134210;28;940;-48
2022/03/01 02:26:29;;;;;;;;;;;;;;;0.46;66.14;95720.50;5134041;27;989;-49
2022/03/01 02:28:55;;;;;;;;;;;;;;;0.46;66.37;95722.28;5134226;27;948;-49
2022/03/01 02:31:21;;;;;;;;;;;;;;;0.40;66.47;95720.84;5133693;28;1035;-48
2022/03/01 02:33:47;;;;;;;;;;;;;;;0.45;66.31;95718.78;5133699;28;1980;-49
2022/03/01 02:36:13;;;;;;;;;;;;;;;0.45;66.17;95720.56;5136356;27;1006;-49
2022/03/01 02:38:39;;;;;;;;;;;;;;;0.29;66.15;95715.34;5137869;27;1036;-49
2022/03/01 02:41:05;;;;;;;;;;;;;;;0.24;66.39;95714.72;5137586;27;1195;-49
2022/03/01 02:43:31;;;;;;;;;;;;;;;0.12;66.55;95717.09;5137818;27;969;-49
2022/03/01 02:45:57;;;;;;;;;;;;;;;0.22;66.17;95706.91;5137466;27;1030;-49
2022/03/01 02:48:23;;;;;;;;;;;;;;;0.33;65.65;95711.59;5137746;27;983;-49
2022/03/01 02:50:49;;;;;;;;;;;;;;;0.30;66.29;95709.13;5132714;27;1172;-49
2022/03/01 02:53:15;;;;;;;;;;;;;;;0.28;65.98;95713.63;5117300;28;1991;-49
2022/03/01 02:55:42;;;;;;;;;;;;;;;0.28;65.45;95708.38;5117037;28;989;-49
2022/03/01 02:58:08;;;;;;;;;;;;;;;0.25;65.46;95709.38;5116709;28;1102;-49
2022/03/01 03:00:34;;;;;;;;;;;;;;;0.21;65.90;95707.88;5116674;28;1083;-49
2022/03/01 03:03:00;;;;;;;;;;;;;;;0.23;65.67;95708.63;5116865;28;1016;-49
2022/03/01 03:05:26;;;;;;;;;;;;;;;0.22;65.72;95712.19;5116575;28;1197;-49
2022/03/01 03:07:52;;;;;;;;;;;;;;;0.24;65.23;95712.09;5116922;28;1039;-49
2022/03/01 03:10:18;;;;;;;;;;;;;;;0.28;65.70;95706.56;5116609;28;1110;-49
2022/03/01 03:12:44;;;;;;;;;;;;;;;0.18;64.98;95706.22;5116468;28;1999;-49
2022/03/01 03:15:10;;;;;;;;;;;;;;;0.13;65.20;95716.19;5116540;28;1064;-49
2022/03/01 03:17:37;;;;;;;;;;;;;;;0.16;65.93;95715.16;5116754;28;987;-49
2022/03/01 03:20:04;;;;;;;;;;;;;;;0.13;64.94;95715.31;5116705;28;960;-49
2022/03/01 03:22:30;;;;;;;;;;;;;;;0.08;66.00;95717.38;5116604;28;992;-49
2022/03/01 03:24:56;;;;;;;;;;;;;;;0.12;66.15;95711.00;5116628;28;1078;-49
2022/03/01 03:27:22;;;;;;;;;;;;;;;0.21;64.01;95712.25;5116591;28;1041;-49
2022/03/01 03:29:48;;;;;;;;;;;;;;;0.32;64.61;95726.53;5116315;28;1095;-49
2022/03/01 03:32:14;;;;;;;;;;;;;;;0.30;64.67;95720.47;5116083;28;1016;-49
2022/03/01 03:34:40;;;;;;;;;;;;;;;0.35;64.62;95721.09;5116100;28;1901;-49
2022/03/01 03:37:06;;;;;;;;;;;;;;;0.32;64.76;95712.50;5116135;28;1092;-49
2022/03/01 03:39:33;;;;;;;;;;;;;;;0.33;64.52;95711.59;5116474;28;949;-49
2022/03/01 03:41:59;;;;;;;;;;;;;;;0.21;64.52;95712.25;5115684;28;1036;-49
2022/03/01 03:44:25;;;;;;;;;;;;;;;0.20;64.86;95708.78;5116249;28;1050;-49
2022/03/01 03:46:51;;;;;;;;;;;;;;;0.20;64.21;95706.16;5115637;28;1034;-49
2022/03/01 03:49:17;;;;;;;;;;;;;;;0.19;64.45;95709.75;5115902;28;1056;-49
2022/03/01 03:51:43;;;;;;;;;;;;;;;0.25;64.20;95701.50;5128255;27;1216;-49
2022/03/01 03:54:09;;;;;;;;;;;;;;;0.33;63.74;95706.34;5136454;27;1989;-49
2022/03/01 03:56:35;;;;;;;;;;;;;;;0.29;64.14;95699.56;5136082;27;1239;-49
2022/03/01 03:59:01;;;;;;;;;;;;;;;0.25;63.99;95698.00;5136231;27;1035;-49
2022/03/01 04:01:27;;;;;;;;;;;;;;;0.25;64.06;95698.88;5136169;27;986;-49
2022/03/01 04:03:54;;;;;;;;;;;;;;;0.23;64.31;95699.88;5136395;27;992;-49
2022/03/01 04:06:20;;;;;;;;;;;;;;;0.21;64.08;95699.09;5136325;27;976;-49
2022/03/01 04:08:46;;;;;;;;;;;;;;;0.12;63.89;95701.31;5136151;27;1090;-49
2022/03/01 04:11:12;;;;;;;;;;;;;;;0.13;64.76;95710.03;5136168;27;1090;-49
2022/03/01 04:13:38;;;;;;;;;;;;;;;0.11;64.72;95701.41;5135829;27;1991;-49
2022/03/01 04:16:04;;;;;;;;;;;;;;;0.12;63.97;95698.69;5135851;27;968;-49
2022/03/01 04:18:30;;;;;;;;;;;;;;;0.06;64.19;95701.66;5135785;27;1044;-48
2022/03/01 04:20:57;;;;;;;;;;;;;;;0.14;63.86;95703.88;5135840;27;1087;-49
2022/03/01 04:23:23;;;;;;;;;;;;;;;0.06;64.16;95703.41;5135886;27;1047;-49
2022/03/01 04:25:49;;;;;;;;;;;;;;;0.03;64.19;95701.81;5135923;27;987;-49
2022/03/01 04:28:15;;;;;;;;;;;;;;;-0.04;64.27;95700.44;5135591;27;980;-49
2022/03/01 04:30:41;;;;;;;;;;;;;;;0.00;64.20;95702.00;5135950;27;967;-49
2022/03/01 04:33:07;;;;;;;;;;;;;;;0.06;64.29;95711.31;5135276;27;1906;-48
2022/03/01 04:35:33;;;;;;;;;;;;;;;0.04;64.17;95710.53;5135650;27;1866;-48
2022/03/01 04:37:59;;;;;;;;;;;;;;;-0.04;64.51;95703.94;5135449;27;953;-49
2022/03/01 04:40:26;;;;;;;;;;;;;;;-0.14;64.75;95717.66;5135443;27;897;-48
2022/03/01 04:42:52;;;;;;;;;;;;;;;-0.08;64.83;95707.66;5135126;27;999;-49
2022/03/01 04:45:18;;;;;;;;;;;;;;;-0.12;64.47;95710.53;5135302;27;1067;-49
2022/03/01 04:47:45;;;;;;;;;;;;;;;-0.06;64.35;95715.47;5135342;27;1035;-48
2022/03/01 04:50:12;;;;;;;;;;;;;;;-0.09;64.74;95711.22;5135576;27;956;-48
2022/03/01 04:52:38;;;;;;;;;;;;;;;-0.07;64.74;95711.16;5115127;27;2001;-48
2022/03/01 04:55:04;;;;;;;;;;;;;;;-0.15;64.40;95719.44;5114908;28;973;-48
2022/03/01 04:57:30;;;;;;;;;;;;;;;-0.18;65.37;95721.38;5114179;28;1071;-49
2022/03/01 04:59:57;;;;;;;;;;;;;;;-0.15;65.26;95723.84;5114169;28;976;-48
2022/03/01 05:02:23;;;;;;;;;;;;;;;-0.16;65.18;95724.78;5114651;28;961;-49
2022/03/01 05:04:49;;;;;;;;;;;;;;;-0.21;65.14;95717.13;5114731;28;992;-48
2022/03/01 05:07:18;;;;;;;;;;;;;;;-0.17;65.33;95720.44;5114477;28;999;-48
2022/03/01 05:09:44;;;;;;;;;;;;;;;-0.12;65.10;95721.91;5114581;28;948;-49
2022/03/01 05:12:10;;;;;;;;;;;;;;;-0.15;65.02;95729.09;5114128;28;1036;-48
2022/03/01 05:14:36;;;;;;;;;;;;;;;-0.12;64.95;95734.19;5114454;28;1909;-48
2022/03/01 05:17:03;;;;;;;;;;;;;;;0.09;64.31;95730.41;5114436;28;1075;-49
2022/03/01 05:19:29;;;;;;;;;;;;;;;0.14;64.25;95732.78;5114430;28;1047;-49
2022/03/01 05:21:55;;;;;;;;;;;;;;;0.12;64.22;95737.28;5114312;27;969;-48
2022/03/01 05:24:21;;;;;;;;;;;;;;;0.16;63.57;95738.81;5114147;28;1035;-48
2022/03/01 05:26:47;;;;;;;;;;;;;;;0.13;64.25;95742.47;5114186;28;971;-49
2022/03/01 05:29:13;;;;;;;;;;;;;;;0.12;63.52;95737.28;5113932;28;950;-48
2022/03/01 05:31:40;;;;;;;;;;;;;;;0.22;63.75;95750.78;5114014;28;1048;-48
2022/03/01 05:34:06;;;;;;;;;;;;;;;0.36;63.62;95738.59;5113571;28;1910;-48
2022/03/01 05:36:32;;;;;;;;;;;;;;;0.44;62.98;95751.31;5114169;28;1035;-49
2022/03/01 05:38:58;;;;;;;;;;;;;;;0.34;63.80;95745.72;5113850;28;1044;-48
2022/03/01 05:41:24;;;;;;;;;;;;;;;0.49;62.75;95740.53;5113987;28;1207;-49
2022/03/01 05:43:50;;;;;;;;;;;;;;;0.47;63.37;95752.91;5113608;28;964;-49
2022/03/01 05:46:16;;;;;;;;;;;;;;;0.43;63.21;95757.50;5113869;28;972;-49
2022/03/01 05:48:43;;;;;;;;;;;;;;;0.55;62.78;95758.59;5113643;28;924;-49
2022/03/01 05:51:09;;;;;;;;;;;;;;;0.57;63.54;95756.75;5121066;27;1165;-49
2022/03/01 05:53:35;;;;;;;;;;;;;;;0.78;62.54;95762.59;5134104;27;1996;-48
2022/03/01 05:56:01;;;;;;;;;;;;;;;0.80;62.00;95762.47;5134383;27;1242;-49
2022/03/01 05:58:27;;;;;;;;;;;;;;;0.84;61.13;95762.25;5134253;28;1048;-49
2022/03/01 06:00:53;;;;;;;;;;;;;;;0.89;60.99;95761.97;5134350;27;1024;-49
2022/03/01 06:03:19;;;;;;;;;;;;;;;0.93;61.83;95768.75;5133989;28;1870;-49
2022/03/01 06:05:45;;;;;;;;;;;;;;;0.94;62.16;95766.03;5134282;28;1043;-49
2022/03/01 06:08:11;;;;;;;;;;;;;;;0.83;61.46;95759.69;5134330;28;960;-49
2022/03/01 06:10:37;;;;;;;;;;;;;;;0.77;61.54;95774.03;5137451;27;992;-48
2022/03/01 06:13:03;;;;;;;;;;;;;;;0.90;61.92;95769.78;5137936;27;2007;-49
2022/03/01 06:15:29;;;;;;;;;;;;;;;0.97;60.74;95763.22;5138427;27;1028;-49
2022/03/01 06:17:55;;;;;;;;;;;;;;;1.06;60.88;95766.25;5138509;27;1047;-49
2022/03/01 06:20:21;;;;;;;;;;;;;;;1.12;60.75;95769.41;5138387;27;1063;-49
2022/03/01 06:22:47;;;;;;;;;;;;;;;1.25;60.79;95769.56;5138465;27;953;-49
2022/03/01 06:25:13;;;;;;;;;;;;;;;1.42;60.19;95765.06;5138033;27;1039;-49
2022/03/01 06:27:40;;;;;;;;;;;;;;;1.51;59.28;95761.88;5138188;27;1072;-49
2022/03/01 06:30:06;;;;;;;;;;;;;;;1.53;59.20;95757.38;5137730;27;1852;-49
2022/03/01 06:32:33;;;;;;;;;;;;;;;1.66;58.43;95768.88;5138087;27;1044;-48
2022/03/01 06:34:59;;;;;;;;;;;;;;;1.70;58.29;95767.75;5137865;27;1909;-49
2022/03/01 06:37:25;;;;;;;;;;;;;;;1.98;57.71;95762.63;5137054;27;1035;-49
2022/03/01 06:39:51;;;;;;;;;;;;;;;2.33;56.95;95768.34;5138013;27;963;-49
2022/03/01 06:42:17;;;;;;;;;;;;;;;2.86;55.23;95766.72;5137796;27;1007;-49
2022/03/01 06:44:43;;;;;;;;;;;;;;;2.74;55.01;95773.66;5137642;27;973;-48
2022/03/01 06:47:09;;;;;;;;;;;;;;;2.56;55.83;95766.03;5137937;27;1020;-48
2022/03/01 06:49:35;;;;;;;;;;;;;;;2.65;56.17;95768.09;5137777;27;972;-48
2022/03/01 06:52:02;;;;;;;;;;;;;;;2.87;56.04;95768.44;5122638;27;1235;-48
2022/03/01 06:54:27;;;;;;;;;;;;;;;3.22;54.42;95773.19;5116829;28;1997;-49
2022/03/01 06:56:53;;;;;;;;;;;;;;;3.30;53.81;95770.91;5116922;28;1083;-49
2022/03/01 06:59:20;;;;;;;;;;;;;;;3.55;53.49;95764.00;5116944;27;1063;-48
2022/03/01 07:01:46;;;;;;;;;;;;;;;3.78;52.43;95762.44;5117184;28;950;-49
2022/03/01 07:04:12;;;;;;;;;;;;;;;4.23;50.95;95764.63;5116963;28;1033;-49
2022/03/01 07:06:38;;;;;;;;;;;;;;;4.40;51.57;95760.81;5117187;28;1056;-49
2022/03/01 07:09:04;;;;;;;;;;;;;;;4.37;49.85;95761.03;5116664;28;1007;-49
2022/03/01 07:11:30;;;;;;;;;;;;;;;4.73;48.50;95764.66;5116845;28;1040;-48
2022/03/01 07:13:56;;;;;;;;;;;;;;;5.08;47.95;95775.34;5116306;28;1909;-49
2022/03/01 07:16:22;;;;;;;;;;;;;;;6.23;45.52;95768.53;5116617;28;1052;-49
2022/03/01 07:18:48;;;;;;;;;;;;;;;5.99;45.96;95776.56;5116695;28;1052;-49
2022/03/01 07:21:14;;;;;;;;;;;;;;;5.96;45.94;95771.50;5114739;28;1029;-49
2022/03/01 07:23:40;;;;;;;;;;;;;;;5.86;44.81;95766.00;5116786;28;972;-48
2022/03/01 07:26:07;;;;;;;;;;;;;;;5.91;45.72;95769.16;5116287;28;957;-48
2022/03/01 07:28:34;;;;;;;;;;;;;;;6.24;45.00;95768.41;5116637;27;1040;-48
2022/03/01 07:31:00;;;;;;;;;;;;;;;7.28;42.34;95766.34;5116459;28;1060;-49
2022/03/01 07:33:26;;;;;;;;;;;;;;;8.51;40.13;95768.50;5116286;28;1914;-49
2022/03/01 07:35:52;;;;;;;;;;;;;;;9.59;38.29;95770.44;5116296;28;1038;-49
2022/03/01 07:38:18;;;;;;;;;;;;;;;10.46;35.76;95766.84;5116255;28;919;-50
2022/03/01 07:40:44;;;;;;;;;;;;;;;11.52;35.71;95775.34;5116369;28;1040;-50
2022/03/01 07:43:10;;;;;;;;;;;;;;;12.54;33.01;95762.47;5116177;28;961;-48
2022/03/01 07:45:36;;;;;;;;;;;;;;;14.15;30.57;95763.34;5116200;28;968;-48
2022/03/01 07:48:02;;;;;;;;;;;;;;;14.91;28.94;95769.31;5116301;28;1050;-49
2022/03/01 07:50:29;;;;;;;;;;;;;;;15.20;29.18;95771.38;5117628;27;1208;-49
2022/03/01 07:52:55;;;;;;;;;;;;;;;14.88;28.34;95758.88;5136360;27;1988;-50
2022/03/01 07:55:22;;;;;;;;;;;;;;;14.61;28.77;95770.91;5135395;27;1022;-48
2022/03/01 07:57:48;;;;;;;;;;;;;;;12.74;30.76;95760.41;5136193;27;1253;-49
2022/03/01 08:00:15;;;;;;;;;;;;;;;12.73;31.68;95760.56;5136119;27;1055;-49
2022/03/01 08:02:41;;;;;;;;;;;;;;;14.27;29.01;95761.13;5136571;27;995;-48
2022/03/01 08:05:09;;;;;;;;;;;;;;;13.00;30.66;95764.91;5135986;27;1048;-49
2022/03/01 08:07:35;;;;;;;;;;;;;;;12.53;31.47;95763.47;5136589;27;1055;-49
2022/03/01 08:10:02;;;;;;;;;;;;;;;12.15;31.38;95764.72;5136257;27;960;-49
2022/03/01 08:12:28;;;;;;;;;;;;;;;12.39;31.28;95761.38;5135768;27;1028;-49
2022/03/01 08:14:54;;;;;;;;;;;;;;;13.70;30.06;95759.25;5135663;27;2039;-48
2022/03/01 08:17:20;;;;;;;;;;;;;;;13.93;29.09;95762.16;5136082;27;1118;-49
2022/03/01 08:19:47;;;;;;;;;;;;;;;13.04;30.64;95759.03;5135854;27;976;-49
2022/03/01 08:22:13;;;;;;;;;;;;;;;11.66;32.41;95762.41;5135911;27;1045;-49
2022/03/01 08:24:39;;;;;;;;;;;;;;;11.05;32.72;95764.78;5135871;27;964;-48
2022/03/01 08:27:05;;;;;;;;;;;;;;;10.76;32.56;95762.25;5135599;27;1233;-48
2022/03/01 08:29:31;;;;;;;;;;;;;;;10.88;33.16;95762.91;5136007;27;1063;-49
2022/03/01 08:31:57;;;;;;;;;;;;;;;11.61;32.27;95762.88;5135699;27;1051;-48
2022/03/01 08:34:23;;;;;;;;;;;;;;;11.34;33.15;95763.75;5134590;27;1913;-49
2022/03/01 08:36:49;;;;;;;;;;;;;;;10.55;34.29;95755.28;5135343;27;1087;-49
2022/03/01 08:39:15;;;;;;;;;;;;;;;9.75;35.91;95759.19;5135603;27;1032;-49
2022/03/01 08:41:41;;;;;;;;;;;;;;;8.93;37.07;95761.19;5135582;27;1023;-49
2022/03/01 08:44:08;;;;;;;;;;;;;;;8.32;37.97;95754.06;5135152;27;1113;-49
2022/03/01 08:46:34;;;;;;;;;;;;;;;8.34;38.39;95762.75;5135416;27;1023;-48
2022/03/01 08:49:00;;;;;;;;;;;;;;;7.59;39.60;95756.69;5135460;27;992;-49
2022/03/01 08:51:26;;;;;;;;;;;;;;;6.78;41.68;95752.69;5124081;27;1870;-49
2022/03/01 08:53:53;;;;;;;;;;;;;;;6.63;41.50;95752.94;5114874;28;1988;-48
2022/03/01 08:56:20;;;;;;;;;;;;;;;6.46;41.90;95756.09;5114619;28;1099;-49
2022/03/01 08:58:47;;;;;;;;;;;;;;;6.30;41.88;95755.59;5114487;28;968;-49
2022/03/01 09:01:14;;;;;;;;;;;;;;;5.97;43.17;95752.78;5114435;28;1102;-48
2022/03/01 09:03:40;;;;;;;;;;;;;;;5.57;44.45;95760.25;5114887;28;949;-49
2022/03/01 09:06:06;;;;;;;;;;;;;;;5.60;44.95;95757.38;5114494;28;965;-49
2022/03/01 09:08:33;;;;;;;;;;;;;;;5.86;42.49;95753.59;5114781;28;983;-48
2022/03/01 09:10:59;;;;;;;;;;;;;;;6.20;42.18;95758.13;5114255;28;1005;-49
2022/03/01 09:13:26;;;;;;;;;;;;;;;6.32;43.82;95754.53;5114336;28;1918;-49
2022/03/01 09:15:52;;;;;;;;;;;;;;;6.27;42.27;95751.38;5114041;28;1089;-48
2022/03/01 09:18:18;;;;;;;;;;;;;;;6.18;43.30;95754.75;5114472;28;1000;-48
2022/03/01 09:20:44;;;;;;;;;;;;;;;6.09;44.00;95756.31;5114073;28;1888;-48
2022/03/01 09:23:10;;;;;;;;;;;;;;;5.99;45.08;95752.66;5114341;28;984;-49
2022/03/01 09:25:36;;;;;;;;;;;;;;;5.70;45.61;95749.56;5114030;28;1032;-48
2022/03/01 09:28:02;;;;;;;;;;;;;;;5.61;44.27;95754.59;5114191;28;1047;-48
2022/03/01 09:30:28;;;;;;;;;;;;;;;5.14;44.80;95753.72;5114105;28;1062;-49
2022/03/01 09:32:54;;;;;;;;;;;;;;;4.96;43.71;95750.59;5114028;28;1957;-49
2022/03/01 09:35:21;;;;;;;;;;;;;;;5.08;46.04;95756.78;5114490;28;975;-49
2022/03/01 09:37:48;;;;;;;;;;;;;;;5.36;46.79;95749.44;5114076;28;949;-49
2022/03/01 09:40:14;;;;;;;;;;;;;;;5.39;45.39;95752.72;5114263;28;1020;-49
2022/03/01 09:42:41;;;;;;;;;;;;;;;5.57;45.76;95753.13;5113749;28;1045;-48
2022/03/01 09:45:08;;;;;;;;;;;;;;;5.53;47.21;95749.03;5113453;28;1091;-49
2022/03/01 09:47:34;;;;;;;;;;;;;;;5.62;46.30;95747.50;5113691;28;1028;-48
2022/03/01 09:50:00;;;;;;;;;;;;;;;5.83;44.96;95748.50;5114030;28;1048;-48
2022/03/01 09:52:26;;;;;;;;;;;;;;;5.84;45.31;95752.00;5131929;27;1204;-48
2022/03/01 09:54:52;;;;;;;;;;;;;;;5.69;45.33;95748.69;5134121;27;1906;-48
2022/03/01 10:00:59;;;;;;;;;;;;;;;5.11;47.08;95748.63;4655368;28;2215;-48
2022/03/01 10:03:29;;;;;;;;;;;;;;;5.22;46.61;95747.84;5134043;28;1031;-49
2022/03/01 10:06:05;;;;;;;;;;;;;;;5.27;45.84;95749.19;5133237;28;970;-49
2022/03/01 10:08:31;;;;;;;;;;;;;;;5.12;46.40;95747.66;5134440;27;960;-49
2022/03/01 10:10:58;;;;;;;;;;;;;;;5.25;46.26;95752.91;5134110;28;1153;-48
2022/03/01 10:13:26;;;;;;;;;;;;;;;5.18;48.41;95752.50;5133728;28;1909;-48
2022/03/01 10:16:02;;;;;;;;;;;;;;;5.28;48.09;95747.38;5133956;27;1012;-48
2022/03/01 10:18:33;;;;;;;;;;;;;;;5.24;47.62;95741.44;5133972;27;1186;-48
2022/03/01 10:21:05;;;;;;;;;;;;;;;5.15;47.38;95747.44;5134191;27;955;-48
2022/03/01 10:23:32;;;;;;;;;;;;;;;5.05;46.62;95741.13;5134184;27;1045;-48
2022/03/01 10:26:10;;;;;;;;;;;;;;;5.30;46.45;95739.31;5133837;27;1008;-47
2022/03/01 10:28:37;;;;;;;;;;;;;;;5.33;47.49;95731.97;5133822;27;961;-48
2022/03/01 10:31:10;;;;;;;;;;;;;;;4.96;47.23;95733.84;5134271;27;1028;-48
2022/03/01 10:33:37;;;;;;;;;;;;;;;4.96;46.15;95726.72;5133790;27;1910;-48
2022/03/01 10:36:04;;;;;;;;;;;;;;;5.07;47.96;95723.31;5133850;27;1087;-48
2022/03/01 10:38:30;;;;;;;;;;;;;;;5.18;48.54;95726.00;5134095;27;940;-48
2022/03/01 10:40:57;;;;;;;;;;;;;;;5.27;47.38;95716.50;5133745;28;961;-48
2022/03/01 10:43:24;;;;;;;;;;;;;;;5.20;47.89;95713.47;5133501;27;1036;-48
2022/03/01 10:45:51;;;;;;;;;;;;;;;5.15;48.75;95714.78;5134057;27;1013;-48
2022/03/01 10:48:30;;;;;;;;;;;;;;;5.30;47.67;95704.84;5133690;27;1071;-48
2022/03/01 10:51:04;;;;;;;;;;;;;;;5.81;48.09;95701.84;5128408;27;1215;-48
2022/03/01 10:53:32;;;;;;;;;;;;;;;6.37;47.38;95704.53;5113316;28;1905;-48
2022/03/01 10:56:04;;;;;;;;;;;;;;;7.06;46.47;95698.13;5113579;28;1043;-48
2022/03/01 10:58:31;;;;;;;;;;;;;;;7.43;47.12;95693.22;5117168;28;1060;-47
2022/03/01 11:00:57;;;;;;;;;;;;;;;7.16;44.56;95691.06;5117078;28;1106;-48
2022/03/01 11:03:24;;;;;;;;;;;;;;;7.33;46.90;95688.81;5116769;28;1052;-48
2022/03/01 11:05:53;;;;;;;;;;;;;;;7.33;45.23;95691.50;5116954;28;1053;-48
2022/03/01 11:08:20;;;;;;;;;;;;;;;7.25;45.74;95689.47;5116701;28;1036;-49
2022/03/01 11:10:48;;;;;;;;;;;;;;;7.11;45.75;95687.94;5116904;28;969;-48
2022/03/01 11:13:18;;;;;;;;;;;;;;;7.17;46.14;95687.44;5116440;28;1906;-48
2022/03/01 11:15:54;;;;;;;;;;;;;;;7.34;44.69;95677.19;5116909;28;1003;-48
2022/03/01 11:18:20;;;;;;;;;;;;;;;7.37;44.71;95671.63;5116397;28;1028;-47
2022/03/01 11:20:48;;;;;;;;;;;;;;;7.49;44.56;95670.59;5116793;28;1015;-48
2022/03/01 11:23:19;;;;;;;;;;;;;;;7.35;46.04;95670.91;5116746;28;1037;-48
2022/03/01 11:25:46;;;;;;;;;;;;;;;7.39;46.46;95675.00;5116480;28;1040;-48
2022/03/01 11:28:12;;;;;;;;;;;;;;;7.18;44.29;95673.16;5116229;28;1131;-48
2022/03/01 11:30:38;;;;;;;;;;;;;;;7.06;47.22;95668.00;5116426;28;1090;-48
2022/03/01 11:33:05;;;;;;;;;;;;;;;7.54;47.11;95659.56;5116112;28;1905;-48
2022/03/01 11:35:53;;;;;;;;;;;;;;;7.72;45.00;95659.81;5116224;28;1035;-48
2022/03/01 11:38:23;;;;;;;;;;;;;;;7.53;45.74;95656.06;5116357;28;1037;-47
2022/03/01 11:40:53;;;;;;;;;;;;;;;7.07;46.47;95651.94;5116152;28;1921;-48
2022/03/01 11:43:21;;;;;;;;;;;;;;;6.65;47.88;95649.19;5116118;27;1068;-48
2022/03/01 11:45:48;;;;;;;;;;;;;;;6.09;48.26;95651.91;5116334;28;1118;-47
2022/03/01 11:48:19;;;;;;;;;;;;;;;5.45;50.66;95642.69;5116134;28;1023;-47
2022/03/01 11:50:45;;;;;;;;;;;;;;;5.61;51.98;95658.25;5120003;27;1152;-48
2022/03/01 11:53:14;;;;;;;;;;;;;;;5.67;50.55;95655.13;5136471;27;1906;-48
2022/03/01 11:55:42;;;;;;;;;;;;;;;5.67;51.15;95648.03;5136749;27;1051;-48
2022/03/01 11:58:09;;;;;;;;;;;;;;;6.03;50.00;95645.28;5136261;27;1845;-48
2022/03/01 12:00:37;;;;;;;;;;;;;;;6.16;49.60;95640.69;5136197;27;1246;-47
2022/03/01 12:03:03;;;;;;;;;;;;;;;6.24;48.63;95632.09;5136489;27;1039;-48
2022/03/01 12:05:29;;;;;;;;;;;;;;;6.20;49.65;95625.34;5136643;27;961;-48
2022/03/01 12:07:55;;;;;;;;;;;;;;;6.60;49.13;95628.31;5135942;27;1971;-48
2022/03/01 12:10:24;;;;;;;;;;;;;;;6.49;49.73;95619.50;5136293;27;1002;-48
2022/03/01 12:12:52;;;;;;;;;;;;;;;6.66;47.97;95624.31;5135831;27;1095;-47
2022/03/01 12:15:29;;;;;;;;;;;;;;;6.49;48.21;95608.88;5135959;27;959;-47
2022/03/01 12:17:55;;;;;;;;;;;;;;;6.39;47.94;95612.31;5136327;27;1024;-48
2022/03/01 12:20:22;;;;;;;;;;;;;;;6.30;47.92;95610.38;5135820;27;1043;-48
2022/03/01 12:22:52;;;;;;;;;;;;;;;6.05;49.37;95608.84;5135895;27;1954;-48
2022/03/01 12:25:18;;;;;;;;;;;;;;;6.22;48.65;95610.13;5135686;27;1122;-48
2022/03/01 12:27:46;;;;;;;;;;;;;;;6.17;48.95;95599.06;5135794;27;965;-48
2022/03/01 12:30:12;;;;;;;;;;;;;;;5.82;49.39;95607.97;5135885;27;1013;-48
2022/03/01 12:32:39;;;;;;;;;;;;;;;5.72;49.97;95596.41;5136028;27;944;-48
2022/03/01 12:35:05;;;;;;;;;;;;;;;5.68;50.74;95601.09;5135326;27;1912;-48
2022/03/01 12:37:31;;;;;;;;;;;;;;;5.63;50.57;95596.16;5135971;27;965;-48
2022/03/01 12:39:57;;;;;;;;;;;;;;;5.42;49.43;95597.81;5135242;27;1024;-47
2022/03/01 12:42:28;;;;;;;;;;;;;;;5.39;49.42;95598.91;5135297;27;977;-48
2022/03/01 12:44:55;;;;;;;;;;;;;;;5.42;50.11;95590.69;5135702;27;1015;-48
2022/03/01 12:47:21;;;;;;;;;;;;;;;5.25;49.88;95597.34;5135696;27;999;-48
2022/03/01 12:49:47;;;;;;;;;;;;;;;5.40;49.46;95591.78;5135324;27;1007;-47
2022/03/01 12:52:17;;;;;;;;;;;;;;;5.51;49.66;95597.13;5119010;27;1164;-48
2022/03/01 12:54:46;;;;;;;;;;;;;;;5.71;48.00;95589.41;5114749;28;1913;-48
2022/03/01 12:57:13;;;;;;;;;;;;;;;5.70;49.05;95593.88;5114785;28;1221;-48
2022/03/01 12:59:40;;;;;;;;;;;;;;;5.70;49.14;95593.88;5114365;28;1953;-47
2022/03/01 13:02:07;;;;;;;;;;;;;;;5.74;49.00;95591.81;5114854;28;1048;-48
2022/03/01 13:04:35;;;;;;;;;;;;;;;5.71;50.21;95584.09;5114709;28;999;-48
2022/03/01 13:07:01;;;;;;;;;;;;;;;5.73;50.10;95588.34;5114800;28;1039;-48
2022/03/01 13:09:27;;;;;;;;;;;;;;;5.63;49.91;95587.34;5114447;28;1027;-47
2022/03/01 13:11:53;;;;;;;;;;;;;;;5.50;49.37;95582.16;5114490;28;1015;-48